sensor_id;sensor_type;location;lat;lon;timestamp;P1;durP1;ratioP1;P2;durP2;ratioP2
2199;SDS011;1106;48.762;9.168;2022-10-18T00:02:12;18.60;;;17.03;;
2199;SDS011;1106;48.762;9.168;2022-10-18T00:04:39;17.83;;;16.67;;
2199;SDS011;1106;48.762;9.168;2022-10-18T00:07:07;18.17;;;16.90;;
2199;SDS011;1106;48.762;9.168;2022-10-18T00:09:34;17.37;;;16.17;;
2199;SDS011;1106;48.762;9.168;2022-10-18T00:12:01;18.53;;;17.10;;
2199;SDS011;1106;48.762;9.168;2022-10-18T00:14:28;18.13;;;16.77;;
2199;SDS011;1106;48.762;9.168;2022-10-18T00:16:56;17.40;;;16.07;;
2199;SDS011;1106;48.762;9.168;2022-10-18T00:19:22;18.10;;;16.37;;
2199;SDS011;1106;48.762;9.168;2022-10-18T00:21:49;17.17;;;15.80;;
2199;SDS011;1106;48.762;9.168;2022-10-18T00:24:18;17.73;;;16.00;;
2199;SDS011;1106;48.762;9.168;2022-10-18T00:26:45;17.33;;;15.63;;
2199;SDS011;1106;48.762;9.168;2022-10-18T00:29:13;17.63;;;16.33;;
2199;SDS011;1106;48.762;9.168;2022-10-18T00:31:41;17.67;;;16.50;;
2199;SDS011;1106;48.762;9.168;2022-10-18T00:34:09;17.20;;;15.80;;
2199;SDS011;1106;48.762;9.168;2022-10-18T00:36:38;17.13;;;15.53;;
2199;SDS011;1106;48.762;9.168;2022-10-18T00:39:06;18.27;;;16.37;;
2199;SDS011;1106;48.762;9.168;2022-10-18T00:41:35;16.83;;;15.53;;
2199;SDS011;1106;48.762;9.168;2022-10-18T00:44:04;17.60;;;16.10;;
2199;SDS011;1106;48.762;9.168;2022-10-18T00:46:33;19.67;;;16.27;;
2199;SDS011;1106;48.762;9.168;2022-10-18T00:49:01;17.27;;;15.87;;
2199;SDS011;1106;48.762;9.168;2022-10-18T00:51:33;16.67;;;15.20;;
2199;SDS011;1106;48.762;9.168;2022-10-18T00:54:03;16.20;;;15.10;;
2199;SDS011;1106;48.762;9.168;2022-10-18T00:56:30;16.80;;;15.30;;
2199;SDS011;1106;48.762;9.168;2022-10-18T00:59:00;17.60;;;16.03;;
2199;SDS011;1106;48.762;9.168;2022-10-18T01:01:27;20.33;;;16.17;;
2199;SDS011;1106;48.762;9.168;2022-10-18T01:03:54;16.60;;;15.50;;
2199;SDS011;1106;48.762;9.168;2022-10-18T01:06:22;18.07;;;16.60;;
2199;SDS011;1106;48.762;9.168;2022-10-18T01:08:55;17.50;;;16.30;;
2199;SDS011;1106;48.762;9.168;2022-10-18T01:11:44;17.17;;;15.97;;
2199;SDS011;1106;48.762;9.168;2022-10-18T01:14:25;17.03;;;15.90;;
2199;SDS011;1106;48.762;9.168;2022-10-18T01:17:03;17.80;;;16.00;;
2199;SDS011;1106;48.762;9.168;2022-10-18T01:20:00;16.60;;;15.30;;
2199;SDS011;1106;48.762;9.168;2022-10-18T01:22:49;16.10;;;14.63;;
2199;SDS011;1106;48.762;9.168;2022-10-18T01:25:36;16.37;;;14.93;;
2199;SDS011;1106;48.762;9.168;2022-10-18T01:28:11;16.70;;;15.70;;
2199;SDS011;1106;48.762;9.168;2022-10-18T01:30:47;17.10;;;15.23;;
2199;SDS011;1106;48.762;9.168;2022-10-18T01:33:24;17.60;;;16.10;;
2199;SDS011;1106;48.762;9.168;2022-10-18T01:35:56;17.00;;;15.77;;
2199;SDS011;1106;48.762;9.168;2022-10-18T01:38:27;17.27;;;15.83;;
2199;SDS011;1106;48.762;9.168;2022-10-18T01:40:57;16.90;;;15.47;;
2199;SDS011;1106;48.762;9.168;2022-10-18T01:43:26;15.97;;;14.87;;
2199;SDS011;1106;48.762;9.168;2022-10-18T01:45:56;17.37;;;15.90;;
2199;SDS011;1106;48.762;9.168;2022-10-18T01:48:25;17.80;;;16.20;;
2199;SDS011;1106;48.762;9.168;2022-10-18T01:50:52;16.27;;;15.30;;
2199;SDS011;1106;48.762;9.168;2022-10-18T01:53:23;17.47;;;16.40;;
2199;SDS011;1106;48.762;9.168;2022-10-18T01:55:55;17.30;;;15.70;;
2199;SDS011;1106;48.762;9.168;2022-10-18T01:58:41;18.03;;;16.20;;
2199;SDS011;1106;48.762;9.168;2022-10-18T02:01:17;18.37;;;16.93;;
2199;SDS011;1106;48.762;9.168;2022-10-18T02:03:48;17.00;;;15.87;;
2199;SDS011;1106;48.762;9.168;2022-10-18T02:06:22;17.70;;;16.23;;
2199;SDS011;1106;48.762;9.168;2022-10-18T02:08:56;18.50;;;17.60;;
2199;SDS011;1106;48.762;9.168;2022-10-18T02:11:28;18.87;;;17.20;;
2199;SDS011;1106;48.762;9.168;2022-10-18T02:13:57;20.30;;;18.83;;
2199;SDS011;1106;48.762;9.168;2022-10-18T02:16:30;18.07;;;16.47;;
2199;SDS011;1106;48.762;9.168;2022-10-18T02:19:04;18.73;;;16.80;;
2199;SDS011;1106;48.762;9.168;2022-10-18T02:21:35;17.90;;;16.40;;
2199;SDS011;1106;48.762;9.168;2022-10-18T02:24:05;28.10;;;26.50;;
2199;SDS011;1106;48.762;9.168;2022-10-18T02:26:33;27.80;;;26.20;;
2199;SDS011;1106;48.762;9.168;2022-10-18T02:29:00;18.83;;;17.63;;
2199;SDS011;1106;48.762;9.168;2022-10-18T02:31:28;18.03;;;16.83;;
2199;SDS011;1106;48.762;9.168;2022-10-18T02:34:03;18.20;;;16.87;;
2199;SDS011;1106;48.762;9.168;2022-10-18T02:36:35;20.00;;;18.70;;
2199;SDS011;1106;48.762;9.168;2022-10-18T02:39:10;20.80;;;19.23;;
2199;SDS011;1106;48.762;9.168;2022-10-18T02:41:39;18.70;;;17.53;;
2199;SDS011;1106;48.762;9.168;2022-10-18T02:44:07;19.33;;;18.13;;
2199;SDS011;1106;48.762;9.168;2022-10-18T02:46:36;21.47;;;20.00;;
2199;SDS011;1106;48.762;9.168;2022-10-18T02:49:04;20.50;;;19.20;;
2199;SDS011;1106;48.762;9.168;2022-10-18T02:51:31;18.53;;;17.23;;
2199;SDS011;1106;48.762;9.168;2022-10-18T02:53:58;23.43;;;21.37;;
2199;SDS011;1106;48.762;9.168;2022-10-18T02:56:25;20.07;;;18.73;;
2199;SDS011;1106;48.762;9.168;2022-10-18T02:58:52;24.97;;;23.27;;
2199;SDS011;1106;48.762;9.168;2022-10-18T03:01:19;21.53;;;20.13;;
2199;SDS011;1106;48.762;9.168;2022-10-18T03:03:47;20.13;;;18.73;;
2199;SDS011;1106;48.762;9.168;2022-10-18T03:06:14;21.73;;;20.43;;
2199;SDS011;1106;48.762;9.168;2022-10-18T03:08:41;20.47;;;19.03;;
2199;SDS011;1106;48.762;9.168;2022-10-18T03:11:08;35.37;;;33.63;;
2199;SDS011;1106;48.762;9.168;2022-10-18T03:13:35;42.20;;;40.10;;
2199;SDS011;1106;48.762;9.168;2022-10-18T03:16:02;26.13;;;23.90;;
2199;SDS011;1106;48.762;9.168;2022-10-18T03:18:29;32.07;;;30.33;;
2199;SDS011;1106;48.762;9.168;2022-10-18T03:20:58;21.87;;;20.20;;
2199;SDS011;1106;48.762;9.168;2022-10-18T03:23:28;31.33;;;29.03;;
2199;SDS011;1106;48.762;9.168;2022-10-18T03:25:55;20.73;;;19.30;;
2199;SDS011;1106;48.762;9.168;2022-10-18T03:28:22;19.03;;;17.93;;
2199;SDS011;1106;48.762;9.168;2022-10-18T03:30:49;27.90;;;25.57;;
2199;SDS011;1106;48.762;9.168;2022-10-18T03:33:16;22.17;;;20.03;;
2199;SDS011;1106;48.762;9.168;2022-10-18T03:35:43;20.67;;;18.80;;
2199;SDS011;1106;48.762;9.168;2022-10-18T03:38:11;30.30;;;28.20;;
2199;SDS011;1106;48.762;9.168;2022-10-18T03:40:38;22.57;;;21.03;;
2199;SDS011;1106;48.762;9.168;2022-10-18T03:43:05;33.63;;;31.57;;
2199;SDS011;1106;48.762;9.168;2022-10-18T03:45:32;31.17;;;29.43;;
2199;SDS011;1106;48.762;9.168;2022-10-18T03:47:59;20.43;;;19.03;;
2199;SDS011;1106;48.762;9.168;2022-10-18T03:50:25;21.70;;;19.80;;
2199;SDS011;1106;48.762;9.168;2022-10-18T03:52:52;19.70;;;18.20;;
2199;SDS011;1106;48.762;9.168;2022-10-18T03:55:21;22.70;;;21.30;;
2199;SDS011;1106;48.762;9.168;2022-10-18T03:57:48;36.97;;;34.97;;
2199;SDS011;1106;48.762;9.168;2022-10-18T04:00:15;19.23;;;18.03;;
2199;SDS011;1106;48.762;9.168;2022-10-18T04:02:42;27.63;;;25.50;;
2199;SDS011;1106;48.762;9.168;2022-10-18T04:05:09;27.17;;;25.07;;
2199;SDS011;1106;48.762;9.168;2022-10-18T04:07:37;20.87;;;19.10;;
2199;SDS011;1106;48.762;9.168;2022-10-18T04:10:04;19.60;;;18.40;;
2199;SDS011;1106;48.762;9.168;2022-10-18T04:12:33;38.27;;;36.07;;
2199;SDS011;1106;48.762;9.168;2022-10-18T04:15:00;25.43;;;23.87;;
2199;SDS011;1106;48.762;9.168;2022-10-18T04:17:26;39.57;;;37.70;;
2199;SDS011;1106;48.762;9.168;2022-10-18T04:19:53;39.10;;;37.13;;
2199;SDS011;1106;48.762;9.168;2022-10-18T04:22:20;21.07;;;19.10;;
2199;SDS011;1106;48.762;9.168;2022-10-18T04:24:47;23.83;;;22.07;;
2199;SDS011;1106;48.762;9.168;2022-10-18T04:27:15;20.70;;;19.47;;
2199;SDS011;1106;48.762;9.168;2022-10-18T04:29:43;36.10;;;34.27;;
2199;SDS011;1106;48.762;9.168;2022-10-18T04:32:10;33.70;;;31.50;;
2199;SDS011;1106;48.762;9.168;2022-10-18T04:34:37;20.35;;;19.05;;
2199;SDS011;1106;48.762;9.168;2022-10-18T04:37:04;18.67;;;17.50;;
2199;SDS011;1106;48.762;9.168;2022-10-18T04:39:31;35.50;;;33.20;;
2199;SDS011;1106;48.762;9.168;2022-10-18T04:41:58;20.07;;;18.77;;
2199;SDS011;1106;48.762;9.168;2022-10-18T04:44:25;20.53;;;18.93;;
2199;SDS011;1106;48.762;9.168;2022-10-18T04:46:53;22.37;;;21.10;;
2199;SDS011;1106;48.762;9.168;2022-10-18T04:49:20;23.23;;;21.27;;
2199;SDS011;1106;48.762;9.168;2022-10-18T04:51:47;31.02;;;29.38;;
2199;SDS011;1106;48.762;9.168;2022-10-18T04:54:14;20.10;;;17.87;;
2199;SDS011;1106;48.762;9.168;2022-10-18T04:56:41;20.73;;;19.23;;
2199;SDS011;1106;48.762;9.168;2022-10-18T04:59:08;34.23;;;32.33;;
2199;SDS011;1106;48.762;9.168;2022-10-18T05:01:34;31.17;;;29.67;;
2199;SDS011;1106;48.762;9.168;2022-10-18T05:04:03;25.97;;;24.00;;
2199;SDS011;1106;48.762;9.168;2022-10-18T05:06:30;19.47;;;18.10;;
2199;SDS011;1106;48.762;9.168;2022-10-18T05:08:57;19.33;;;17.97;;
2199;SDS011;1106;48.762;9.168;2022-10-18T05:11:24;25.35;;;24.05;;
2199;SDS011;1106;48.762;9.168;2022-10-18T05:13:50;18.73;;;17.63;;
2199;SDS011;1106;48.762;9.168;2022-10-18T05:16:18;17.97;;;16.97;;
2199;SDS011;1106;48.762;9.168;2022-10-18T05:18:44;23.57;;;22.03;;
2199;SDS011;1106;48.762;9.168;2022-10-18T05:21:15;22.77;;;21.47;;
2199;SDS011;1106;48.762;9.168;2022-10-18T05:23:43;27.97;;;26.37;;
2199;SDS011;1106;48.762;9.168;2022-10-18T05:26:09;28.33;;;25.90;;
2199;SDS011;1106;48.762;9.168;2022-10-18T05:28:37;20.60;;;19.47;;
2199;SDS011;1106;48.762;9.168;2022-10-18T05:31:04;30.30;;;28.90;;
2199;SDS011;1106;48.762;9.168;2022-10-18T05:33:32;33.57;;;31.90;;
2199;SDS011;1106;48.762;9.168;2022-10-18T05:35:59;31.73;;;30.07;;
2199;SDS011;1106;48.762;9.168;2022-10-18T05:38:27;22.03;;;20.83;;
2199;SDS011;1106;48.762;9.168;2022-10-18T05:40:55;22.37;;;20.70;;
2199;SDS011;1106;48.762;9.168;2022-10-18T05:43:22;22.87;;;21.70;;
2199;SDS011;1106;48.762;9.168;2022-10-18T05:45:52;35.67;;;34.00;;
2199;SDS011;1106;48.762;9.168;2022-10-18T05:48:19;33.63;;;31.40;;
2199;SDS011;1106;48.762;9.168;2022-10-18T05:50:46;23.87;;;22.37;;
2199;SDS011;1106;48.762;9.168;2022-10-18T05:53:13;41.40;;;39.30;;
2199;SDS011;1106;48.762;9.168;2022-10-18T05:55:41;20.93;;;19.70;;
2199;SDS011;1106;48.762;9.168;2022-10-18T05:58:08;35.97;;;33.90;;
2199;SDS011;1106;48.762;9.168;2022-10-18T06:00:35;40.13;;;38.00;;
2199;SDS011;1106;48.762;9.168;2022-10-18T06:03:02;27.53;;;25.63;;
2199;SDS011;1106;48.762;9.168;2022-10-18T06:05:32;32.63;;;31.00;;
2199;SDS011;1106;48.762;9.168;2022-10-18T06:07:59;22.90;;;21.60;;
2199;SDS011;1106;48.762;9.168;2022-10-18T06:10:26;22.33;;;20.53;;
2199;SDS011;1106;48.762;9.168;2022-10-18T06:12:55;37.83;;;35.77;;
2199;SDS011;1106;48.762;9.168;2022-10-18T06:15:21;34.17;;;32.23;;
2199;SDS011;1106;48.762;9.168;2022-10-18T06:17:48;21.50;;;20.30;;
2199;SDS011;1106;48.762;9.168;2022-10-18T06:20:15;43.47;;;41.40;;
2199;SDS011;1106;48.762;9.168;2022-10-18T06:22:44;28.13;;;26.15;;
2199;SDS011;1106;48.762;9.168;2022-10-18T06:25:11;30.80;;;28.87;;
2199;SDS011;1106;48.762;9.168;2022-10-18T06:27:38;22.30;;;20.80;;
2199;SDS011;1106;48.762;9.168;2022-10-18T06:30:07;24.23;;;21.87;;
2199;SDS011;1106;48.762;9.168;2022-10-18T06:32:35;23.57;;;22.07;;
2199;SDS011;1106;48.762;9.168;2022-10-18T06:35:02;26.33;;;24.67;;
2199;SDS011;1106;48.762;9.168;2022-10-18T06:37:29;33.63;;;32.03;;
2199;SDS011;1106;48.762;9.168;2022-10-18T06:39:56;34.20;;;32.50;;
2199;SDS011;1106;48.762;9.168;2022-10-18T06:42:23;28.50;;;26.83;;
2199;SDS011;1106;48.762;9.168;2022-10-18T06:44:50;28.20;;;26.60;;
2199;SDS011;1106;48.762;9.168;2022-10-18T06:47:19;28.33;;;26.50;;
2199;SDS011;1106;48.762;9.168;2022-10-18T06:49:46;30.27;;;28.00;;
2199;SDS011;1106;48.762;9.168;2022-10-18T06:52:13;23.30;;;21.80;;
2199;SDS011;1106;48.762;9.168;2022-10-18T06:54:42;25.10;;;23.80;;
2199;SDS011;1106;48.762;9.168;2022-10-18T06:57:09;25.93;;;24.20;;
2199;SDS011;1106;48.762;9.168;2022-10-18T06:59:36;29.13;;;27.63;;
2199;SDS011;1106;48.762;9.168;2022-10-18T07:02:03;26.13;;;24.67;;
2199;SDS011;1106;48.762;9.168;2022-10-18T07:04:31;25.80;;;24.43;;
2199;SDS011;1106;48.762;9.168;2022-10-18T07:06:58;26.70;;;24.90;;
2199;SDS011;1106;48.762;9.168;2022-10-18T07:09:25;32.00;;;30.43;;
2199;SDS011;1106;48.762;9.168;2022-10-18T07:11:52;27.83;;;26.53;;
2199;SDS011;1106;48.762;9.168;2022-10-18T07:14:19;36.37;;;34.43;;
2199;SDS011;1106;48.762;9.168;2022-10-18T07:16:46;27.67;;;26.17;;
2199;SDS011;1106;48.762;9.168;2022-10-18T07:19:15;43.13;;;41.07;;
2199;SDS011;1106;48.762;9.168;2022-10-18T07:21:44;27.00;;;25.77;;
2199;SDS011;1106;48.762;9.168;2022-10-18T07:24:10;27.93;;;26.70;;
2199;SDS011;1106;48.762;9.168;2022-10-18T07:26:38;35.30;;;33.47;;
2199;SDS011;1106;48.762;9.168;2022-10-18T07:29:07;42.73;;;40.50;;
2199;SDS011;1106;48.762;9.168;2022-10-18T07:31:35;43.77;;;41.63;;
2199;SDS011;1106;48.762;9.168;2022-10-18T07:34:02;37.13;;;35.33;;
2199;SDS011;1106;48.762;9.168;2022-10-18T07:36:30;30.70;;;29.30;;
2199;SDS011;1106;48.762;9.168;2022-10-18T07:38:59;28.57;;;27.20;;
2199;SDS011;1106;48.762;9.168;2022-10-18T07:41:26;45.03;;;42.93;;
2199;SDS011;1106;48.762;9.168;2022-10-18T07:43:53;33.80;;;32.00;;
2199;SDS011;1106;48.762;9.168;2022-10-18T07:46:22;34.13;;;32.23;;
2199;SDS011;1106;48.762;9.168;2022-10-18T07:48:50;30.40;;;28.80;;
2199;SDS011;1106;48.762;9.168;2022-10-18T07:51:17;36.50;;;34.60;;
2199;SDS011;1106;48.762;9.168;2022-10-18T07:53:47;33.97;;;32.10;;
2199;SDS011;1106;48.762;9.168;2022-10-18T07:56:19;34.57;;;32.50;;
2199;SDS011;1106;48.762;9.168;2022-10-18T07:58:47;36.70;;;35.00;;
2199;SDS011;1106;48.762;9.168;2022-10-18T08:01:17;33.57;;;31.57;;
2199;SDS011;1106;48.762;9.168;2022-10-18T08:03:45;38.77;;;36.97;;
2199;SDS011;1106;48.762;9.168;2022-10-18T08:06:13;41.63;;;39.40;;
2199;SDS011;1106;48.762;9.168;2022-10-18T08:08:42;30.37;;;28.67;;
2199;SDS011;1106;48.762;9.168;2022-10-18T08:11:10;42.83;;;40.73;;
2199;SDS011;1106;48.762;9.168;2022-10-18T08:13:40;36.60;;;34.80;;
2199;SDS011;1106;48.762;9.168;2022-10-18T08:16:08;31.80;;;30.03;;
2199;SDS011;1106;48.762;9.168;2022-10-18T08:18:37;40.00;;;37.90;;
2199;SDS011;1106;48.762;9.168;2022-10-18T08:21:05;38.13;;;36.10;;
2199;SDS011;1106;48.762;9.168;2022-10-18T08:23:35;30.50;;;28.90;;
2199;SDS011;1106;48.762;9.168;2022-10-18T08:26:03;41.17;;;39.07;;
2199;SDS011;1106;48.762;9.168;2022-10-18T08:28:31;39.67;;;37.70;;
2199;SDS011;1106;48.762;9.168;2022-10-18T08:31:02;40.80;;;38.90;;
2199;SDS011;1106;48.762;9.168;2022-10-18T08:33:29;45.57;;;43.33;;
2199;SDS011;1106;48.762;9.168;2022-10-18T08:35:57;38.63;;;36.73;;
2199;SDS011;1106;48.762;9.168;2022-10-18T08:38:28;43.53;;;41.10;;
2199;SDS011;1106;48.762;9.168;2022-10-18T08:40:57;40.20;;;38.17;;
2199;SDS011;1106;48.762;9.168;2022-10-18T08:43:27;33.17;;;31.63;;
2199;SDS011;1106;48.762;9.168;2022-10-18T08:45:58;39.80;;;38.10;;
2199;SDS011;1106;48.762;9.168;2022-10-18T08:48:29;31.50;;;29.90;;
2199;SDS011;1106;48.762;9.168;2022-10-18T08:51:00;43.70;;;41.53;;
2199;SDS011;1106;48.762;9.168;2022-10-18T08:53:30;44.60;;;42.40;;
2199;SDS011;1106;48.762;9.168;2022-10-18T08:56:04;32.83;;;31.30;;
2199;SDS011;1106;48.762;9.168;2022-10-18T08:58:38;33.13;;;31.23;;
2199;SDS011;1106;48.762;9.168;2022-10-18T09:01:09;31.40;;;29.90;;
2199;SDS011;1106;48.762;9.168;2022-10-18T09:03:50;37.87;;;36.07;;
2199;SDS011;1106;48.762;9.168;2022-10-18T09:06:43;33.23;;;31.40;;
2199;SDS011;1106;48.762;9.168;2022-10-18T09:09:20;34.80;;;33.07;;
2199;SDS011;1106;48.762;9.168;2022-10-18T09:11:56;34.33;;;32.77;;
2199;SDS011;1106;48.762;9.168;2022-10-18T09:14:34;36.00;;;34.30;;
2199;SDS011;1106;48.762;9.168;2022-10-18T09:17:27;41.47;;;39.57;;
2199;SDS011;1106;48.762;9.168;2022-10-18T09:20:05;33.57;;;32.17;;
2199;SDS011;1106;48.762;9.168;2022-10-18T09:22:44;40.63;;;38.63;;
2199;SDS011;1106;48.762;9.168;2022-10-18T09:25:19;38.77;;;36.77;;
2199;SDS011;1106;48.762;9.168;2022-10-18T09:27:54;42.07;;;39.67;;
2199;SDS011;1106;48.762;9.168;2022-10-18T09:30:33;31.73;;;30.13;;
2199;SDS011;1106;48.762;9.168;2022-10-18T09:36:09;33.33;;;31.37;;
2199;SDS011;1106;48.762;9.168;2022-10-18T09:38:43;33.23;;;31.40;;
2199;SDS011;1106;48.762;9.168;2022-10-18T09:41:14;31.30;;;29.70;;
2199;SDS011;1106;48.762;9.168;2022-10-18T09:43:46;37.47;;;35.20;;
2199;SDS011;1106;48.762;9.168;2022-10-18T09:46:18;45.67;;;43.30;;
2199;SDS011;1106;48.762;9.168;2022-10-18T09:48:48;38.50;;;36.40;;
2199;SDS011;1106;48.762;9.168;2022-10-18T09:51:20;31.57;;;29.87;;
2199;SDS011;1106;48.762;9.168;2022-10-18T09:54:02;32.07;;;30.57;;
2199;SDS011;1106;48.762;9.168;2022-10-18T09:56:37;32.97;;;30.77;;
2199;SDS011;1106;48.762;9.168;2022-10-18T09:59:08;41.33;;;39.10;;
2199;SDS011;1106;48.762;9.168;2022-10-18T10:02:00;32.07;;;30.27;;
2199;SDS011;1106;48.762;9.168;2022-10-18T10:04:27;31.50;;;29.57;;
2199;SDS011;1106;48.762;9.168;2022-10-18T10:06:56;31.30;;;29.40;;
2199;SDS011;1106;48.762;9.168;2022-10-18T10:09:26;31.97;;;30.07;;
2199;SDS011;1106;48.762;9.168;2022-10-18T10:11:54;30.67;;;28.97;;
2199;SDS011;1106;48.762;9.168;2022-10-18T10:14:23;32.50;;;30.03;;
2199;SDS011;1106;48.762;9.168;2022-10-18T10:16:52;34.47;;;32.47;;
2199;SDS011;1106;48.762;9.168;2022-10-18T10:19:25;38.70;;;36.20;;
2199;SDS011;1106;48.762;9.168;2022-10-18T10:21:57;33.10;;;31.40;;
2199;SDS011;1106;48.762;9.168;2022-10-18T10:24:34;36.83;;;35.03;;
2199;SDS011;1106;48.762;9.168;2022-10-18T10:27:16;32.83;;;31.03;;
2199;SDS011;1106;48.762;9.168;2022-10-18T10:29:47;40.77;;;37.63;;
2199;SDS011;1106;48.762;9.168;2022-10-18T10:32:21;34.47;;;32.37;;
2199;SDS011;1106;48.762;9.168;2022-10-18T10:34:51;33.37;;;31.13;;
2199;SDS011;1106;48.762;9.168;2022-10-18T10:37:30;33.30;;;31.70;;
2199;SDS011;1106;48.762;9.168;2022-10-18T10:40:15;32.07;;;29.73;;
2199;SDS011;1106;48.762;9.168;2022-10-18T10:42:50;36.00;;;33.90;;
2199;SDS011;1106;48.762;9.168;2022-10-18T10:45:22;32.07;;;30.27;;
2199;SDS011;1106;48.762;9.168;2022-10-18T10:47:51;39.47;;;37.27;;
2199;SDS011;1106;48.762;9.168;2022-10-18T10:50:23;33.93;;;32.10;;
2199;SDS011;1106;48.762;9.168;2022-10-18T10:52:53;33.63;;;31.53;;
2199;SDS011;1106;48.762;9.168;2022-10-18T10:55:21;32.17;;;30.30;;
2199;SDS011;1106;48.762;9.168;2022-10-18T10:57:52;32.13;;;30.23;;
2199;SDS011;1106;48.762;9.168;2022-10-18T11:00:37;34.63;;;32.73;;
2199;SDS011;1106;48.762;9.168;2022-10-18T11:03:10;45.80;;;43.30;;
2199;SDS011;1106;48.762;9.168;2022-10-18T11:05:44;32.63;;;31.07;;
2199;SDS011;1106;48.762;9.168;2022-10-18T11:08:14;39.07;;;36.57;;
2199;SDS011;1106;48.762;9.168;2022-10-18T11:10:49;33.77;;;31.77;;
2199;SDS011;1106;48.762;9.168;2022-10-18T11:13:23;41.57;;;39.50;;
2199;SDS011;1106;48.762;9.168;2022-10-18T11:16:03;43.93;;;41.30;;
2199;SDS011;1106;48.762;9.168;2022-10-18T11:18:33;34.87;;;32.97;;
2199;SDS011;1106;48.762;9.168;2022-10-18T11:21:02;32.93;;;31.03;;
2199;SDS011;1106;48.762;9.168;2022-10-18T11:23:36;41.00;;;38.80;;
2199;SDS011;1106;48.762;9.168;2022-10-18T11:26:10;32.97;;;31.20;;
2199;SDS011;1106;48.762;9.168;2022-10-18T11:28:57;33.80;;;31.80;;
2199;SDS011;1106;48.762;9.168;2022-10-18T11:31:43;39.87;;;37.23;;
2199;SDS011;1106;48.762;9.168;2022-10-18T12:05:24;36.57;;;34.53;;
2199;SDS011;1106;48.762;9.168;2022-10-18T12:07:55;35.87;;;34.07;;
2199;SDS011;1106;48.762;9.168;2022-10-18T12:10:26;37.33;;;35.20;;
2199;SDS011;1106;48.762;9.168;2022-10-18T12:12:57;33.77;;;31.97;;
2199;SDS011;1106;48.762;9.168;2022-10-18T12:15:27;41.93;;;39.03;;
2199;SDS011;1106;48.762;9.168;2022-10-18T12:17:57;35.63;;;33.83;;
2199;SDS011;1106;48.762;9.168;2022-10-18T12:20:30;40.53;;;37.50;;
2199;SDS011;1106;48.762;9.168;2022-10-18T12:22:59;36.30;;;34.33;;
2199;SDS011;1106;48.762;9.168;2022-10-18T12:25:29;33.10;;;31.30;;
2199;SDS011;1106;48.762;9.168;2022-10-18T12:27:59;34.57;;;32.40;;
2199;SDS011;1106;48.762;9.168;2022-10-18T12:30:33;37.03;;;35.03;;
2199;SDS011;1106;48.762;9.168;2022-10-18T12:33:08;37.10;;;35.23;;
2199;SDS011;1106;48.762;9.168;2022-10-18T12:35:42;38.77;;;36.73;;
2199;SDS011;1106;48.762;9.168;2022-10-18T12:38:20;31.97;;;30.37;;
2199;SDS011;1106;48.762;9.168;2022-10-18T12:40:51;36.07;;;34.27;;
2199;SDS011;1106;48.762;9.168;2022-10-18T12:43:20;45.27;;;42.90;;
2199;SDS011;1106;48.762;9.168;2022-10-18T12:45:50;38.80;;;36.90;;
2199;SDS011;1106;48.762;9.168;2022-10-18T12:48:32;38.27;;;36.47;;
2199;SDS011;1106;48.762;9.168;2022-10-18T12:51:05;33.20;;;31.50;;
2199;SDS011;1106;48.762;9.168;2022-10-18T12:53:39;31.83;;;30.33;;
2199;SDS011;1106;48.762;9.168;2022-10-18T13:02:19;32.77;;;30.97;;
2199;SDS011;1106;48.762;9.168;2022-10-18T13:04:51;33.23;;;31.57;;
2199;SDS011;1106;48.762;9.168;2022-10-18T13:07:20;32.03;;;30.60;;
2199;SDS011;1106;48.762;9.168;2022-10-18T13:19:14;33.60;;;31.97;;
2199;SDS011;1106;48.762;9.168;2022-10-18T13:21:48;30.00;;;28.53;;
2199;SDS011;1106;48.762;9.168;2022-10-18T13:24:27;31.50;;;29.90;;
2199;SDS011;1106;48.762;9.168;2022-10-18T13:27:03;32.03;;;30.30;;
2199;SDS011;1106;48.762;9.168;2022-10-18T13:29:47;35.10;;;33.20;;
2199;SDS011;1106;48.762;9.168;2022-10-18T13:32:26;41.93;;;39.70;;
2199;SDS011;1106;48.762;9.168;2022-10-18T13:34:58;34.63;;;32.83;;
2199;SDS011;1106;48.762;9.168;2022-10-18T13:37:25;31.23;;;29.83;;
2199;SDS011;1106;48.762;9.168;2022-10-18T13:42:49;35.77;;;34.20;;
2199;SDS011;1106;48.762;9.168;2022-10-18T13:51:24;40.03;;;38.30;;
2199;SDS011;1106;48.762;9.168;2022-10-18T13:54:08;35.00;;;33.00;;
2199;SDS011;1106;48.762;9.168;2022-10-18T13:56:51;37.50;;;35.93;;
2199;SDS011;1106;48.762;9.168;2022-10-18T13:59:39;33.73;;;32.10;;
2199;SDS011;1106;48.762;9.168;2022-10-18T14:02:41;47.60;;;45.40;;
2199;SDS011;1106;48.762;9.168;2022-10-18T14:05:23;30.37;;;29.17;;
2199;SDS011;1106;48.762;9.168;2022-10-18T14:08:02;35.23;;;33.73;;
2199;SDS011;1106;48.762;9.168;2022-10-18T14:10:37;48.17;;;45.97;;
2199;SDS011;1106;48.762;9.168;2022-10-18T14:13:16;40.67;;;38.90;;
2199;SDS011;1106;48.762;9.168;2022-10-18T14:15:47;48.60;;;46.40;;
2199;SDS011;1106;48.762;9.168;2022-10-18T14:18:17;32.67;;;31.20;;
2199;SDS011;1106;48.762;9.168;2022-10-18T14:20:50;49.73;;;47.43;;
2199;SDS011;1106;48.762;9.168;2022-10-18T14:23:22;39.87;;;38.03;;
2199;SDS011;1106;48.762;9.168;2022-10-18T14:25:54;37.03;;;35.33;;
2199;SDS011;1106;48.762;9.168;2022-10-18T14:28:32;44.63;;;42.63;;
2199;SDS011;1106;48.762;9.168;2022-10-18T14:30:59;43.50;;;41.50;;
2199;SDS011;1106;48.762;9.168;2022-10-18T14:33:31;46.30;;;44.10;;
2199;SDS011;1106;48.762;9.168;2022-10-18T14:36:01;46.67;;;44.40;;
2199;SDS011;1106;48.762;9.168;2022-10-18T14:38:32;34.13;;;32.53;;
2199;SDS011;1106;48.762;9.168;2022-10-18T14:41:04;44.07;;;42.07;;
2199;SDS011;1106;48.762;9.168;2022-10-18T14:43:39;32.57;;;30.90;;
2199;SDS011;1106;48.762;9.168;2022-10-18T14:46:10;44.67;;;42.63;;
2199;SDS011;1106;48.762;9.168;2022-10-18T14:48:50;42.23;;;40.30;;
2199;SDS011;1106;48.762;9.168;2022-10-18T14:51:17;28.30;;;26.80;;
2199;SDS011;1106;48.762;9.168;2022-10-18T14:53:45;37.23;;;35.33;;
2199;SDS011;1106;48.762;9.168;2022-10-18T14:56:18;31.60;;;30.10;;
2199;SDS011;1106;48.762;9.168;2022-10-18T14:58:49;32.07;;;30.67;;
2199;SDS011;1106;48.762;9.168;2022-10-18T15:01:18;29.03;;;27.83;;
2199;SDS011;1106;48.762;9.168;2022-10-18T15:03:46;30.23;;;28.90;;
2199;SDS011;1106;48.762;9.168;2022-10-18T15:06:15;34.97;;;33.37;;
2199;SDS011;1106;48.762;9.168;2022-10-18T15:08:44;44.03;;;42.03;;
2199;SDS011;1106;48.762;9.168;2022-10-18T15:11:13;47.77;;;45.47;;
2199;SDS011;1106;48.762;9.168;2022-10-18T15:13:43;35.07;;;33.50;;
2199;SDS011;1106;48.762;9.168;2022-10-18T15:16:16;31.17;;;29.77;;
2199;SDS011;1106;48.762;9.168;2022-10-18T15:18:57;28.87;;;27.57;;
2199;SDS011;1106;48.762;9.168;2022-10-18T15:21:25;31.93;;;30.33;;
2199;SDS011;1106;48.762;9.168;2022-10-18T15:23:52;27.97;;;26.47;;
2199;SDS011;1106;48.762;9.168;2022-10-18T15:26:20;42.13;;;40.23;;
2199;SDS011;1106;48.762;9.168;2022-10-18T15:28:58;28.97;;;27.50;;
2199;SDS011;1106;48.762;9.168;2022-10-18T15:32:01;44.77;;;42.60;;
2199;SDS011;1106;48.762;9.168;2022-10-18T15:34:32;27.13;;;25.87;;
2199;SDS011;1106;48.762;9.168;2022-10-18T15:37:13;42.63;;;40.33;;
2199;SDS011;1106;48.762;9.168;2022-10-18T15:42:53;34.27;;;32.57;;
2199;SDS011;1106;48.762;9.168;2022-10-18T15:45:26;51.63;;;49.43;;
2199;SDS011;1106;48.762;9.168;2022-10-18T15:47:59;28.47;;;26.97;;
2199;SDS011;1106;48.762;9.168;2022-10-18T15:50:43;30.80;;;29.00;;
2199;SDS011;1106;48.762;9.168;2022-10-18T15:55:59;27.60;;;25.90;;
2199;SDS011;1106;48.762;9.168;2022-10-18T15:58:37;40.33;;;38.23;;
2199;SDS011;1106;48.762;9.168;2022-10-18T16:01:07;28.43;;;27.13;;
2199;SDS011;1106;48.762;9.168;2022-10-18T16:03:41;44.70;;;42.53;;
2199;SDS011;1106;48.762;9.168;2022-10-18T16:06:12;32.87;;;31.00;;
2199;SDS011;1106;48.762;9.168;2022-10-18T16:08:41;27.03;;;25.80;;
2199;SDS011;1106;48.762;9.168;2022-10-18T16:11:12;32.03;;;30.50;;
2199;SDS011;1106;48.762;9.168;2022-10-18T16:13:41;26.87;;;25.37;;
2199;SDS011;1106;48.762;9.168;2022-10-18T16:16:10;34.27;;;32.50;;